Harrisburg, New York
Current Conditions -  °F | °C
As of 6:58 AM on Friday 28 Nov 2014 (Local Time) from KGTB Reporting Station
Few Clouds Few Clouds  
Wind Chill: 16°   Ceiling: Unl
Heat Index: 16°   Visibility: 10mi
Dew Point: 15°   Wind: 3mph
Humidity: 94%   Direction: 260°W
Pressure: 30.12"   Gusts: NA
Location:  43.7565°N, 75.5938°W
Report Text: KGTB 281158Z AUTO 26003KT 10SM FEW080 M09/M10 A3012 RMK AO2 CIG 049 RWY03 SLP212 70001 T10881096 11054 21095 52012
Loading
Personal Weather Stations






























Interactive Weather Map New forecast layout! Learn more

10-Day Weather Forecast

Advertisements
Track Severe Weather on mobile